PWSweather.com
Personal Weather Stations
Station Observations
ALLANTONFL
Allanton, Panama City, FL 32404

AllantonPanama City, FL 32404

Lat: 30.036, Lon: -85.48284060000003

Elevation: 11

Station Type: Acurite 5in1

Latest ConditionsUpdated 1:12:02 AM CST Saturday, Jan 18, 2020
Currently Today's Max Today's Min Today's Average
Temperature 56.7°F13.7°C 58.3°F14.6°C 56.7°F13.7°C 57.5°F14.2°C
Dew Point 48.8°F9.3°C 49.3°F9.6°C 48.6°F9.2°C 49.0°F9.4°C
Winds 8.3 mph ESE13.4 kmh ESE 11.4 mph -18.3 kmh - - 5.8 mph 9.3 kmh
Wind Gusts 8.3 mph13.4 kmh 11.4 mph18.3 kmh - -
Humidity 75% 75% 71% 73%
Pressure 30.35 in1027.8 mb 30.37 in1028.4 mb 30.35 in1027.8 mb -
Hour Temp Dew Point Humidity Winds Wind Gusts Pressure Precip Precip Rate Daily Precip Total
01:12 AM 56.7°F13.7°C 48.8°F9.3°C 75% 8.3 mph ESE13.4 kmh ESE 8.3 mph13.4 kmh 30.35 in1027.8 mb 0.00 in0.0 mm 0.00 in0.0 mm 0.00 in0.0 mm
01:11 AM 56.7°F13.7°C 48.8°F9.3°C 75% 4.7 mph ESE7.6 kmh ESE 7.8 mph12.6 kmh 30.35 in1027.8 mb 0.00 in0.0 mm 0.00 in0.0 mm 0.00 in0.0 mm
01:10 AM 56.7°F13.7°C 48.8°F9.3°C 75% 4.7 mph ESE7.6 kmh ESE 7.8 mph12.6 kmh 30.35 in1027.8 mb 0.00 in0.0 mm 0.00 in0.0 mm 0.00 in0.0 mm
01:09 AM 56.7°F13.7°C 48.8°F9.3°C 75% 4.2 mph E6.8 kmh E 7.8 mph12.6 kmh 30.35 in1027.8 mb 0.00 in0.0 mm 0.00 in0.0 mm 0.00 in0.0 mm
01:08 AM 56.7°F13.7°C 48.8°F9.3°C 75% 4.7 mph E7.6 kmh E 7.8 mph12.6 kmh 30.35 in1027.8 mb 0.00 in0.0 mm 0.00 in0.0 mm 0.00 in0.0 mm
01:07 AM 56.7°F13.7°C 48.8°F9.3°C 75% 4.2 mph ESE6.8 kmh ESE 7.8 mph12.6 kmh 30.35 in1027.8 mb 0.00 in0.0 mm 0.00 in0.0 mm 0.00 in0.0 mm
01:06 AM 56.7°F13.7°C 48.8°F9.3°C 75% 5.3 mph ESE8.5 kmh ESE 7.8 mph12.6 kmh 30.35 in1027.8 mb 0.00 in0.0 mm 0.00 in0.0 mm 0.00 in0.0 mm
01:05 AM 56.7°F13.7°C 48.8°F9.3°C 75% 6.3 mph ESE10.1 kmh ESE 7.8 mph12.6 kmh 30.35 in1027.8 mb 0.00 in0.0 mm 0.00 in0.0 mm 0.00 in0.0 mm
01:04 AM 56.8°F13.8°C 49.0°F9.4°C 75% 4.7 mph ESE7.6 kmh ESE 6.8 mph10.9 kmh 30.35 in1027.8 mb 0.00 in0.0 mm 0.00 in0.0 mm 0.00 in0.0 mm
01:03 AM 56.8°F13.8°C 49.0°F9.4°C 75% 3.7 mph NE6.0 kmh NE 7.3 mph11.7 kmh 30.35 in1027.8 mb 0.00 in0.0 mm 0.00 in0.0 mm 0.00 in0.0 mm
01:02 AM 56.8°F13.8°C 49.0°F9.4°C 75% 6.3 mph E10.1 kmh E 7.3 mph11.7 kmh 30.35 in1027.8 mb 0.00 in0.0 mm 0.00 in0.0 mm 0.00 in0.0 mm
01:01 AM 56.8°F13.8°C 49.0°F9.4°C 75% 5.3 mph E8.5 kmh E 7.3 mph11.7 kmh 30.35 in1027.8 mb 0.00 in0.0 mm 0.00 in0.0 mm 0.00 in0.0 mm
01:00 AM 56.8°F13.8°C 49.0°F9.4°C 75% 3.7 mph ENE6.0 kmh ENE 7.3 mph11.7 kmh 30.35 in1027.8 mb 0.00 in0.0 mm 0.00 in0.0 mm 0.00 in0.0 mm
12:59 AM 56.8°F13.8°C 49.0°F9.4°C 75% 4.7 mph ESE7.6 kmh ESE 7.3 mph11.7 kmh 30.35 in1027.8 mb 0.00 in0.0 mm 0.00 in0.0 mm 0.00 in0.0 mm
12:58 AM 56.8°F13.8°C 48.6°F9.2°C 74% 3.2 mph ESE5.1 kmh ESE 7.3 mph11.7 kmh 30.35 in1027.8 mb 0.00 in0.0 mm 0.00 in0.0 mm 0.00 in0.0 mm
12:57 AM 57.0°F13.9°C 48.8°F9.3°C 74% 4.2 mph ESE6.8 kmh ESE 7.3 mph11.7 kmh 30.35 in1027.8 mb 0.00 in0.0 mm 0.00 in0.0 mm 0.00 in0.0 mm
12:56 AM 57.0°F13.9°C 48.8°F9.3°C 74% 4.2 mph ESE6.8 kmh ESE 7.3 mph11.7 kmh 30.35 in1027.8 mb 0.00 in0.0 mm 0.00 in0.0 mm 0.00 in0.0 mm
12:55 AM 57.0°F13.9°C 48.8°F9.3°C 74% 6.8 mph ESE10.9 kmh ESE 8.9 mph14.3 kmh 30.35 in1027.8 mb 0.00 in0.0 mm 0.00 in0.0 mm 0.00 in0.0 mm
12:54 AM 57.0°F13.9°C 48.8°F9.3°C 74% 6.8 mph ESE10.9 kmh ESE 8.9 mph14.3 kmh 30.35 in1027.8 mb 0.00 in0.0 mm 0.00 in0.0 mm 0.00 in0.0 mm
12:53 AM 57.0°F13.9°C 48.8°F9.3°C 74% 5.8 mph E9.3 kmh E 8.9 mph14.3 kmh 30.35 in1027.8 mb 0.00 in0.0 mm 0.00 in0.0 mm 0.00 in0.0 mm
12:52 AM 57.0°F13.9°C 48.8°F9.3°C 74% 5.3 mph ESE8.5 kmh ESE 8.9 mph14.3 kmh 30.35 in1027.8 mb 0.00 in0.0 mm 0.00 in0.0 mm 0.00 in0.0 mm
12:51 AM 57.0°F13.9°C 48.8°F9.3°C 74% 3.2 mph NE5.1 kmh NE 8.9 mph14.3 kmh 30.35 in1027.8 mb 0.00 in0.0 mm 0.00 in0.0 mm 0.00 in0.0 mm
12:50 AM 57.2°F14.0°C 49.0°F9.4°C 74% 6.3 mph ESE10.1 kmh ESE 8.9 mph14.3 kmh 30.35 in1027.8 mb 0.00 in0.0 mm 0.00 in0.0 mm 0.00 in0.0 mm
12:49 AM 57.2°F14.0°C 49.0°F9.4°C 74% 6.3 mph ESE10.1 kmh ESE 8.9 mph14.3 kmh 30.35 in1027.8 mb 0.00 in0.0 mm 0.00 in0.0 mm 0.00 in0.0 mm
12:48 AM 57.2°F14.0°C 49.0°F9.4°C 74% 3.7 mph E6.0 kmh E 8.9 mph14.3 kmh 30.35 in1027.8 mb 0.00 in0.0 mm 0.00 in0.0 mm 0.00 in0.0 mm
12:47 AM 57.2°F14.0°C 49.0°F9.4°C 74% 6.3 mph NE10.1 kmh NE 8.9 mph14.3 kmh 30.35 in1027.8 mb 0.00 in0.0 mm 0.00 in0.0 mm 0.00 in0.0 mm
12:46 AM 57.2°F14.0°C 49.0°F9.4°C 74% 6.8 mph ESE10.9 kmh ESE 8.9 mph14.3 kmh 30.35 in1027.8 mb 0.00 in0.0 mm 0.00 in0.0 mm 0.00 in0.0 mm
12:45 AM 57.2°F14.0°C 49.0°F9.4°C 74% 6.3 mph ESE10.1 kmh ESE 8.3 mph13.4 kmh 30.35 in1027.8 mb 0.00 in0.0 mm 0.00 in0.0 mm 0.00 in0.0 mm
12:44 AM 57.2°F14.0°C 49.0°F9.4°C 74% 6.3 mph NE10.1 kmh NE 8.3 mph13.4 kmh 30.35 in1027.8 mb 0.00 in0.0 mm 0.00 in0.0 mm 0.00 in0.0 mm
12:43 AM 57.2°F14.0°C 49.0°F9.4°C 74% 6.8 mph NE10.9 kmh NE 8.3 mph13.4 kmh 30.35 in1027.8 mb 0.00 in0.0 mm 0.00 in0.0 mm 0.00 in0.0 mm
12:42 AM 57.2°F14.0°C 49.0°F9.4°C 74% 7.3 mph SE11.7 kmh SE 8.3 mph13.4 kmh 30.35 in1027.8 mb 0.00 in0.0 mm 0.00 in0.0 mm 0.00 in0.0 mm
12:41 AM 57.4°F14.1°C 49.2°F9.6°C 74% 5.3 mph ESE8.5 kmh ESE 8.3 mph13.4 kmh 30.36 in1028.1 mb 0.00 in0.0 mm 0.00 in0.0 mm 0.00 in0.0 mm
12:40 AM 57.4°F14.1°C 49.2°F9.6°C 74% 4.7 mph NE7.6 kmh NE 8.3 mph13.4 kmh 30.36 in1028.1 mb 0.00 in0.0 mm 0.00 in0.0 mm 0.00 in0.0 mm
12:39 AM 57.4°F14.1°C 49.2°F9.6°C 74% 6.8 mph ESE10.9 kmh ESE 8.3 mph13.4 kmh 30.36 in1028.1 mb 0.00 in0.0 mm 0.00 in0.0 mm 0.00 in0.0 mm
12:38 AM 57.6°F14.2°C 49.3°F9.6°C 74% 6.8 mph ESE10.9 kmh ESE 7.8 mph12.6 kmh 30.36 in1028.1 mb 0.00 in0.0 mm 0.00 in0.0 mm 0.00 in0.0 mm
12:37 AM 57.6°F14.2°C 49.3°F9.6°C 74% 4.2 mph ESE6.8 kmh ESE 7.8 mph12.6 kmh 30.36 in1028.1 mb 0.00 in0.0 mm 0.00 in0.0 mm 0.00 in0.0 mm
12:36 AM 57.6°F14.2°C 49.3°F9.6°C 74% 3.7 mph ESE6.0 kmh ESE 7.8 mph12.6 kmh 30.36 in1028.1 mb 0.00 in0.0 mm 0.00 in0.0 mm 0.00 in0.0 mm
12:35 AM 57.6°F14.2°C 49.0°F9.4°C 73% 4.2 mph ESE6.8 kmh ESE 8.3 mph13.4 kmh 30.36 in1028.1 mb 0.00 in0.0 mm 0.00 in0.0 mm 0.00 in0.0 mm
12:34 AM 57.6°F14.2°C 49.0°F9.4°C 73% 6.8 mph E10.9 kmh E 8.3 mph13.4 kmh 30.36 in1028.1 mb 0.00 in0.0 mm 0.00 in0.0 mm 0.00 in0.0 mm
12:33 AM 57.6°F14.2°C 49.0°F9.4°C 73% 6.8 mph ESE10.9 kmh ESE 8.9 mph14.3 kmh 30.36 in1028.1 mb 0.00 in0.0 mm 0.00 in0.0 mm 0.00 in0.0 mm
12:32 AM 57.6°F14.2°C 49.0°F9.4°C 73% 5.8 mph ESE9.3 kmh ESE 8.9 mph14.3 kmh 30.36 in1028.1 mb 0.00 in0.0 mm 0.00 in0.0 mm 0.00 in0.0 mm
12:31 AM 57.6°F14.2°C 49.0°F9.4°C 73% 5.3 mph ESE8.5 kmh ESE 8.9 mph14.3 kmh 30.36 in1028.1 mb 0.00 in0.0 mm 0.00 in0.0 mm 0.00 in0.0 mm
12:30 AM 57.6°F14.2°C 49.0°F9.4°C 73% 5.3 mph N8.5 kmh N 8.9 mph14.3 kmh 30.36 in1028.1 mb 0.00 in0.0 mm 0.00 in0.0 mm 0.00 in0.0 mm
12:29 AM 57.6°F14.2°C 49.0°F9.4°C 73% 7.8 mph ESE12.6 kmh ESE 8.9 mph14.3 kmh 30.36 in1028.1 mb 0.00 in0.0 mm 0.00 in0.0 mm 0.00 in0.0 mm
12:28 AM 57.6°F14.2°C 49.0°F9.4°C 73% 4.7 mph ESE7.6 kmh ESE 8.9 mph14.3 kmh 30.36 in1028.1 mb 0.00 in0.0 mm 0.00 in0.0 mm 0.00 in0.0 mm
12:27 AM 57.7°F14.3°C 49.1°F9.5°C 73% 6.3 mph ESE10.1 kmh ESE 8.9 mph14.3 kmh 30.36 in1028.1 mb 0.00 in0.0 mm 0.00 in0.0 mm 0.00 in0.0 mm
12:26 AM 57.7°F14.3°C 49.1°F9.5°C 73% 7.3 mph ESE11.7 kmh ESE 8.9 mph14.3 kmh 30.36 in1028.1 mb 0.00 in0.0 mm 0.00 in0.0 mm 0.00 in0.0 mm
12:25 AM 57.7°F14.3°C 49.1°F9.5°C 73% 7.3 mph ESE11.7 kmh ESE 8.9 mph14.3 kmh 30.36 in1028.1 mb 0.00 in0.0 mm 0.00 in0.0 mm 0.00 in0.0 mm
12:24 AM 57.7°F14.3°C 49.1°F9.5°C 73% 7.8 mph ESE12.6 kmh ESE 10.4 mph16.7 kmh 30.36 in1028.1 mb 0.00 in0.0 mm 0.00 in0.0 mm 0.00 in0.0 mm
12:23 AM 57.9°F14.4°C 49.3°F9.6°C 73% 5.3 mph ESE8.5 kmh ESE 11.4 mph18.3 kmh 30.36 in1028.1 mb 0.00 in0.0 mm 0.00 in0.0 mm 0.00 in0.0 mm
12:22 AM 57.9°F14.4°C 48.9°F9.4°C 72% 6.8 mph ESE10.9 kmh ESE 11.4 mph18.3 kmh 30.36 in1028.1 mb 0.00 in0.0 mm 0.00 in0.0 mm 0.00 in0.0 mm
12:21 AM 57.9°F14.4°C 48.9°F9.4°C 72% 4.7 mph ESE7.6 kmh ESE 11.4 mph18.3 kmh 30.36 in1028.1 mb 0.00 in0.0 mm 0.00 in0.0 mm 0.00 in0.0 mm
12:20 AM 57.9°F14.4°C 48.9°F9.4°C 72% 7.8 mph ESE12.6 kmh ESE 11.4 mph18.3 kmh 30.36 in1028.1 mb 0.00 in0.0 mm 0.00 in0.0 mm 0.00 in0.0 mm
12:19 AM 57.9°F14.4°C 48.9°F9.4°C 72% 7.3 mph E11.7 kmh E 11.4 mph18.3 kmh 30.36 in1028.1 mb 0.00 in0.0 mm 0.00 in0.0 mm 0.00 in0.0 mm
12:18 AM 58.1°F14.5°C 49.1°F9.5°C 72% 3.7 mph NNE6.0 kmh NNE 11.4 mph18.3 kmh 30.36 in1028.1 mb 0.00 in0.0 mm 0.00 in0.0 mm 0.00 in0.0 mm
12:17 AM 58.1°F14.5°C 49.1°F9.5°C 72% 7.3 mph ESE11.7 kmh ESE 11.4 mph18.3 kmh 30.36 in1028.1 mb 0.00 in0.0 mm 0.00 in0.0 mm 0.00 in0.0 mm
12:16 AM 58.1°F14.5°C 49.1°F9.5°C 72% 6.3 mph ESE10.1 kmh ESE 11.4 mph18.3 kmh 30.36 in1028.1 mb 0.00 in0.0 mm 0.00 in0.0 mm 0.00 in0.0 mm
12:15 AM 58.1°F14.5°C 49.1°F9.5°C 72% 9.9 mph ESE15.9 kmh ESE 11.4 mph18.3 kmh 30.36 in1028.1 mb 0.00 in0.0 mm 0.00 in0.0 mm 0.00 in0.0 mm
12:14 AM 58.1°F14.5°C 49.1°F9.5°C 72% 11.4 mph NE18.3 kmh NE 11.4 mph18.3 kmh 30.36 in1028.1 mb 0.00 in0.0 mm 0.00 in0.0 mm 0.00 in0.0 mm
12:13 AM 58.1°F14.5°C 49.1°F9.5°C 72% 6.3 mph ESE10.1 kmh ESE 11.4 mph18.3 kmh 30.36 in1028.1 mb 0.00 in0.0 mm 0.00 in0.0 mm 0.00 in0.0 mm
12:12 AM 58.1°F14.5°C 49.1°F9.5°C 72% 5.8 mph ESE9.3 kmh ESE 11.4 mph18.3 kmh 30.36 in1028.1 mb 0.00 in0.0 mm 0.00 in0.0 mm 0.00 in0.0 mm
12:11 AM 58.1°F14.5°C 49.1°F9.5°C 72% 6.8 mph NW10.9 kmh NW 11.4 mph18.3 kmh 30.36 in1028.1 mb 0.00 in0.0 mm 0.00 in0.0 mm 0.00 in0.0 mm
12:10 AM 58.1°F14.5°C 49.1°F9.5°C 72% 5.8 mph NNE9.3 kmh NNE 11.4 mph18.3 kmh 30.36 in1028.1 mb 0.00 in0.0 mm 0.00 in0.0 mm 0.00 in0.0 mm
12:09 AM 58.1°F14.5°C 49.1°F9.5°C 72% 5.8 mph E9.3 kmh E 11.4 mph18.3 kmh 30.36 in1028.1 mb 0.00 in0.0 mm 0.00 in0.0 mm 0.00 in0.0 mm
12:08 AM 58.3°F14.6°C 49.3°F9.6°C 72% 4.7 mph E7.6 kmh E 11.4 mph18.3 kmh 30.36 in1028.1 mb 0.00 in0.0 mm 0.00 in0.0 mm 0.00 in0.0 mm
12:07 AM 58.3°F14.6°C 49.3°F9.6°C 72% 5.8 mph ESE9.3 kmh ESE 11.4 mph18.3 kmh 30.36 in1028.1 mb 0.00 in0.0 mm 0.00 in0.0 mm 0.00 in0.0 mm
12:06 AM 58.3°F14.6°C 49.3°F9.6°C 72% 5.3 mph ESE8.5 kmh ESE 11.4 mph18.3 kmh 30.36 in1028.1 mb 0.00 in0.0 mm 0.00 in0.0 mm 0.00 in0.0 mm
12:05 AM 58.3°F14.6°C 49.3°F9.6°C 72% 4.7 mph N7.6 kmh N 11.4 mph18.3 kmh 30.36 in1028.1 mb 0.00 in0.0 mm 0.00 in0.0 mm 0.00 in0.0 mm
12:04 AM 58.3°F14.6°C 49.3°F9.6°C 72% 11.4 mph ESE18.3 kmh ESE 11.4 mph18.3 kmh 30.37 in1028.4 mb 0.00 in0.0 mm 0.00 in0.0 mm 0.00 in0.0 mm
12:03 AM 58.3°F14.6°C 49.3°F9.6°C 72% 6.8 mph ESE10.9 kmh ESE 8.9 mph14.3 kmh 30.37 in1028.4 mb 0.00 in0.0 mm 0.00 in0.0 mm 0.00 in0.0 mm
12:02 AM 58.3°F14.6°C 49.3°F9.6°C 72% 4.2 mph NE6.8 kmh NE 8.9 mph14.3 kmh 30.37 in1028.4 mb 0.00 in0.0 mm 0.00 in0.0 mm 0.00 in0.0 mm
12:01 AM 58.3°F14.6°C 48.9°F9.4°C 71% 6.3 mph E10.1 kmh E 8.9 mph14.3 kmh 30.37 in1028.4 mb 0.00 in0.0 mm 0.00 in0.0 mm 0.00 in0.0 mm
12:00 AM 58.3°F14.6°C 48.9°F9.4°C 71% 5.3 mph NNE8.5 kmh NNE 8.9 mph14.3 kmh 30.37 in1028.4 mb 0.00 in0.0 mm 0.00 in0.0 mm 0.00 in0.0 mm